sensor_id;sensor_type;location;lat;lon;timestamp;pressure;altitude;pressure_sealevel;temperature;humidity
25430;BME280;13360;48.152;-1.788;2023-06-19T00:01:39;102723.84;;;18.50;100.00
25430;BME280;13360;48.152;-1.788;2023-06-19T00:04:04;102702.91;;;18.47;100.00
25430;BME280;13360;48.152;-1.788;2023-06-19T00:06:30;102697.31;;;18.47;100.00
25430;BME280;13360;48.152;-1.788;2023-06-19T00:08:55;102679.69;;;18.47;100.00
25430;BME280;13360;48.152;-1.788;2023-06-19T00:11:20;102683.31;;;18.47;100.00
25430;BME280;13360;48.152;-1.788;2023-06-19T00:13:45;102672.44;;;18.46;100.00
25430;BME280;13360;48.152;-1.788;2023-06-19T00:16:10;102655.66;;;18.46;100.00
25430;BME280;13360;48.152;-1.788;2023-06-19T00:18:36;102649.53;;;18.44;100.00
25430;BME280;13360;48.152;-1.788;2023-06-19T00:21:05;102640.31;;;18.43;100.00
25430;BME280;13360;48.152;-1.788;2023-06-19T00:23:31;102641.75;;;18.41;100.00
25430;BME280;13360;48.152;-1.788;2023-06-19T00:25:56;102649.63;;;18.39;100.00
25430;BME280;13360;48.152;-1.788;2023-06-19T00:28:21;102624.75;;;18.37;100.00
25430;BME280;13360;48.152;-1.788;2023-06-19T00:30:47;102607.13;;;18.37;100.00
25430;BME280;13360;48.152;-1.788;2023-06-19T00:33:12;102600.72;;;18.36;100.00
25430;BME280;13360;48.152;-1.788;2023-06-19T00:35:37;102588.69;;;18.36;100.00
25430;BME280;13360;48.152;-1.788;2023-06-19T00:38:02;102575.31;;;18.33;100.00
25430;BME280;13360;48.152;-1.788;2023-06-19T00:40:32;102561.91;;;18.29;100.00
25430;BME280;13360;48.152;-1.788;2023-06-19T00:42:57;102558.59;;;18.27;100.00
25430;BME280;13360;48.152;-1.788;2023-06-19T00:45:23;102551.34;;;18.26;100.00
25430;BME280;13360;48.152;-1.788;2023-06-19T00:47:50;102545.75;;;18.26;100.00
25430;BME280;13360;48.152;-1.788;2023-06-19T00:50:15;102553.63;;;18.24;100.00
25430;BME280;13360;48.152;-1.788;2023-06-19T00:52:41;102544.09;;;18.25;100.00
25430;BME280;13360;48.152;-1.788;2023-06-19T00:55:06;102529.06;;;18.21;100.00
25430;BME280;13360;48.152;-1.788;2023-06-19T00:57:32;102531.03;;;18.21;100.00
25430;BME280;13360;48.152;-1.788;2023-06-19T00:59:57;102512.88;;;18.18;100.00
25430;BME280;13360;48.152;-1.788;2023-06-19T01:02:24;102515.16;;;18.16;100.00
25430;BME280;13360;48.152;-1.788;2023-06-19T01:04:50;102505.13;;;18.15;100.00
25430;BME280;13360;48.152;-1.788;2023-06-19T01:07:17;102498.69;;;18.15;100.00
25430;BME280;13360;48.152;-1.788;2023-06-19T01:09:47;102496.78;;;18.10;100.00
25430;BME280;13360;48.152;-1.788;2023-06-19T01:12:20;102495.97;;;18.10;100.00
25430;BME280;13360;48.152;-1.788;2023-06-19T01:15:07;102487.03;;;18.08;100.00
25430;BME280;13360;48.152;-1.788;2023-06-19T01:17:31;102497.41;;;18.07;100.00
25430;BME280;13360;48.152;-1.788;2023-06-19T01:19:57;102498.53;;;18.06;100.00
25430;BME280;13360;48.152;-1.788;2023-06-19T01:22:29;102494.09;;;18.05;100.00
25430;BME280;13360;48.152;-1.788;2023-06-19T01:24:54;102498.53;;;18.06;100.00
25430;BME280;13360;48.152;-1.788;2023-06-19T01:27:20;102490.75;;;18.03;100.00
25430;BME280;13360;48.152;-1.788;2023-06-19T01:29:46;102491.59;;;18.04;100.00
25430;BME280;13360;48.152;-1.788;2023-06-19T01:35:00;102495.22;;;18.04;100.00
25430;BME280;13360;48.152;-1.788;2023-06-19T01:37:27;102496.06;;;18.05;100.00
25430;BME280;13360;48.152;-1.788;2023-06-19T01:39:54;102498.53;;;18.06;100.00
25430;BME280;13360;48.152;-1.788;2023-06-19T01:42:20;102479.59;;;18.03;100.00
25430;BME280;13360;48.152;-1.788;2023-06-19T01:44:45;102485.19;;;18.03;100.00
25430;BME280;13360;48.152;-1.788;2023-06-19T01:47:11;102486.84;;;18.04;100.00
25430;BME280;13360;48.152;-1.788;2023-06-19T01:49:37;102474.81;;;18.04;100.00
25430;BME280;13360;48.152;-1.788;2023-06-19T01:52:02;102468.41;;;18.03;100.00
25430;BME280;13360;48.152;-1.788;2023-06-19T01:54:27;102471.81;;;18.00;100.00
25430;BME280;13360;48.152;-1.788;2023-06-19T01:56:53;102480.50;;;17.98;100.00
25430;BME280;13360;48.152;-1.788;2023-06-19T01:59:18;102483.31;;;17.98;100.00
25430;BME280;13360;48.152;-1.788;2023-06-19T02:01:43;102490.25;;;18.01;100.00
25430;BME280;13360;48.152;-1.788;2023-06-19T02:04:09;102495.22;;;18.04;100.00
25430;BME280;13360;48.152;-1.788;2023-06-19T02:06:34;102511.91;;;18.09;100.00
25430;BME280;13360;48.152;-1.788;2023-06-19T02:08:59;102519.41;;;18.14;100.00
25430;BME280;13360;48.152;-1.788;2023-06-19T02:11:25;102543.88;;;18.03;100.00
25430;BME280;13360;48.152;-1.788;2023-06-19T02:13:50;102596.50;;;18.01;100.00
25430;BME280;13360;48.152;-1.788;2023-06-19T02:16:15;102638.44;;;18.01;100.00
25430;BME280;13360;48.152;-1.788;2023-06-19T02:18:41;102665.56;;;18.01;100.00
25430;BME280;13360;48.152;-1.788;2023-06-19T02:21:06;102693.22;;;18.02;100.00
25430;BME280;13360;48.152;-1.788;2023-06-19T02:23:31;102717.25;;;18.03;100.00
25430;BME280;13360;48.152;-1.788;2023-06-19T02:25:56;102732.91;;;18.04;100.00
25430;BME280;13360;48.152;-1.788;2023-06-19T02:28:22;102756.41;;;18.03;100.00
25430;BME280;13360;48.152;-1.788;2023-06-19T02:30:47;102779.59;;;18.04;100.00
25430;BME280;13360;48.152;-1.788;2023-06-19T02:33:12;102806.72;;;18.03;100.00
25430;BME280;13360;48.152;-1.788;2023-06-19T02:35:38;102836.88;;;18.06;100.00
25430;BME280;13360;48.152;-1.788;2023-06-19T02:38:06;102855.34;;;18.07;100.00
25430;BME280;13360;48.152;-1.788;2023-06-19T02:40:32;102871.81;;;18.09;100.00
25430;BME280;13360;48.152;-1.788;2023-06-19T02:42:57;102889.13;;;18.11;100.00
25430;BME280;13360;48.152;-1.788;2023-06-19T02:45:22;102906.75;;;18.11;100.00
25430;BME280;13360;48.152;-1.788;2023-06-19T02:47:47;102927.72;;;18.14;100.00
25430;BME280;13360;48.152;-1.788;2023-06-19T02:50:13;102946.41;;;18.18;100.00
25430;BME280;13360;48.152;-1.788;2023-06-19T02:52:38;102965.94;;;18.23;100.00
25430;BME280;13360;48.152;-1.788;2023-06-19T02:55:03;102964.72;;;18.29;100.00
25430;BME280;13360;48.152;-1.788;2023-06-19T02:57:29;102968.97;;;18.27;100.00
25430;BME280;13360;48.152;-1.788;2023-06-19T02:59:54;102980.22;;;18.22;100.00
25430;BME280;13360;48.152;-1.788;2023-06-19T03:02:19;102994.72;;;18.24;100.00
25430;BME280;13360;48.152;-1.788;2023-06-19T03:04:44;103010.88;;;18.32;100.00
25430;BME280;13360;48.152;-1.788;2023-06-19T03:07:10;103010.91;;;18.27;100.00
25430;BME280;13360;48.152;-1.788;2023-06-19T03:09:35;103031.69;;;18.21;100.00
25430;BME280;13360;48.152;-1.788;2023-06-19T03:12:01;103047.34;;;18.22;100.00
25430;BME280;13360;48.152;-1.788;2023-06-19T03:14:26;103060.53;;;18.16;100.00
25430;BME280;13360;48.152;-1.788;2023-06-19T03:16:51;103075.38;;;18.17;100.00
25430;BME280;13360;48.152;-1.788;2023-06-19T03:19:17;103087.38;;;18.17;100.00
25430;BME280;13360;48.152;-1.788;2023-06-19T03:21:42;103112.56;;;18.17;100.00
25430;BME280;13360;48.152;-1.788;2023-06-19T03:24:07;103122.31;;;18.20;100.00
25430;BME280;13360;48.152;-1.788;2023-06-19T03:26:32;103138.78;;;18.26;100.00
25430;BME280;13360;48.152;-1.788;2023-06-19T03:28:58;103150.50;;;18.34;100.00
25430;BME280;13360;48.152;-1.788;2023-06-19T03:31:23;103147.94;;;18.37;100.00
25430;BME280;13360;48.152;-1.788;2023-06-19T03:33:48;103168.34;;;18.38;100.00
25430;BME280;13360;48.152;-1.788;2023-06-19T03:36:14;103163.88;;;18.37;100.00
25430;BME280;13360;48.152;-1.788;2023-06-19T03:38:39;103177.34;;;18.35;100.00
25430;BME280;13360;48.152;-1.788;2023-06-19T03:41:04;103189.09;;;18.32;100.00
25430;BME280;13360;48.152;-1.788;2023-06-19T03:43:29;103207.00;;;18.31;100.00
25430;BME280;13360;48.152;-1.788;2023-06-19T03:45:55;103235.81;;;18.31;100.00
25430;BME280;13360;48.152;-1.788;2023-06-19T03:48:20;103251.75;;;18.31;100.00
25430;BME280;13360;48.152;-1.788;2023-06-19T03:50:45;103276.09;;;18.30;100.00
25430;BME280;13360;48.152;-1.788;2023-06-19T03:53:10;103288.13;;;18.31;100.00
25430;BME280;13360;48.152;-1.788;2023-06-19T03:55:36;103305.75;;;18.31;100.00
25430;BME280;13360;48.152;-1.788;2023-06-19T03:58:01;103318.38;;;18.34;100.00
25430;BME280;13360;48.152;-1.788;2023-06-19T04:00:26;103340.75;;;18.34;100.00
25430;BME280;13360;48.152;-1.788;2023-06-19T04:02:52;103351.09;;;18.33;100.00
25430;BME280;13360;48.152;-1.788;2023-06-19T04:05:17;103372.38;;;18.34;100.00
25430;BME280;13360;48.152;-1.788;2023-06-19T04:07:42;103391.94;;;18.34;100.00
25430;BME280;13360;48.152;-1.788;2023-06-19T04:10:08;103423.56;;;18.35;100.00
25430;BME280;13360;48.152;-1.788;2023-06-19T04:12:33;103437.81;;;18.38;100.00
25430;BME280;13360;48.152;-1.788;2023-06-19T04:14:58;103456.56;;;18.38;100.00
25430;BME280;13360;48.152;-1.788;2023-06-19T04:17:24;103471.69;;;18.37;100.00
25430;BME280;13360;48.152;-1.788;2023-06-19T04:19:49;103496.88;;;18.37;100.00
25430;BME280;13360;48.152;-1.788;2023-06-19T04:22:14;103509.75;;;18.38;100.00
25430;BME280;13360;48.152;-1.788;2023-06-19T04:24:40;103528.75;;;18.41;100.00
25430;BME280;13360;48.152;-1.788;2023-06-19T04:27:05;103552.25;;;18.45;100.00
25430;BME280;13360;48.152;-1.788;2023-06-19T04:29:31;103558.94;;;18.49;100.00
25430;BME280;13360;48.152;-1.788;2023-06-19T04:31:59;103562.88;;;18.43;100.00
25430;BME280;13360;48.152;-1.788;2023-06-19T04:34:25;103596.47;;;18.43;100.00
25430;BME280;13360;48.152;-1.788;2023-06-19T04:36:50;103608.78;;;18.42;100.00
25430;BME280;13360;48.152;-1.788;2023-06-19T04:39:16;103633.41;;;18.45;100.00
25430;BME280;13360;48.152;-1.788;2023-06-19T04:41:44;103647.41;;;18.45;100.00
25430;BME280;13360;48.152;-1.788;2023-06-19T04:44:10;103655.25;;;18.38;100.00
25430;BME280;13360;48.152;-1.788;2023-06-19T04:46:37;103687.16;;;18.37;100.00
25430;BME280;13360;48.152;-1.788;2023-06-19T04:49:02;103710.66;;;18.36;100.00
25430;BME280;13360;48.152;-1.788;2023-06-19T04:51:30;103731.94;;;18.37;100.00
25430;BME280;13360;48.152;-1.788;2023-06-19T04:53:55;103744.81;;;18.38;100.00
25430;BME280;13360;48.152;-1.788;2023-06-19T04:56:20;103763.00;;;18.40;100.00
25430;BME280;13360;48.152;-1.788;2023-06-19T04:58:45;103789.59;;;18.38;100.00
25430;BME280;13360;48.152;-1.788;2023-06-19T05:01:12;103796.31;;;18.42;100.00
25430;BME280;13360;48.152;-1.788;2023-06-19T05:03:37;103809.19;;;18.43;100.00
25430;BME280;13360;48.152;-1.788;2023-06-19T05:06:03;103813.38;;;18.45;100.00
25430;BME280;13360;48.152;-1.788;2023-06-19T05:08:28;103818.41;;;18.48;100.00
25430;BME280;13360;48.152;-1.788;2023-06-19T05:10:53;103826.53;;;18.50;100.00
25430;BME280;13360;48.152;-1.788;2023-06-19T05:13:18;103826.53;;;18.45;100.00
25430;BME280;13360;48.152;-1.788;2023-06-19T05:15:44;103830.44;;;18.49;100.00
25430;BME280;13360;48.152;-1.788;2023-06-19T05:18:09;103850.09;;;18.54;100.00
25430;BME280;13360;48.152;-1.788;2023-06-19T05:20:34;103852.31;;;18.57;100.00
25430;BME280;13360;48.152;-1.788;2023-06-19T05:22:59;103840.00;;;18.58;100.00
25430;BME280;13360;48.152;-1.788;2023-06-19T05:25:25;103838.28;;;18.52;100.00
25430;BME280;13360;48.152;-1.788;2023-06-19T05:27:50;103857.31;;;18.50;100.00
25430;BME280;13360;48.152;-1.788;2023-06-19T05:30:15;103876.09;;;18.49;100.00
25430;BME280;13360;48.152;-1.788;2023-06-19T05:32:41;103887.56;;;18.53;100.00
25430;BME280;13360;48.152;-1.788;2023-06-19T05:35:06;103885.88;;;18.47;100.00
25430;BME280;13360;48.152;-1.788;2023-06-19T05:37:32;103902.66;;;18.42;100.00
25430;BME280;13360;48.152;-1.788;2023-06-19T05:39:57;103929.53;;;18.43;100.00
25430;BME280;13360;48.152;-1.788;2023-06-19T05:42:22;103937.09;;;18.42;100.00
25430;BME280;13360;48.152;-1.788;2023-06-19T05:44:47;103955.84;;;18.42;100.00
25430;BME280;13360;48.152;-1.788;2023-06-19T05:47:12;103970.09;;;18.40;100.00
25430;BME280;13360;48.152;-1.788;2023-06-19T05:49:39;103973.75;;;18.41;100.00
25430;BME280;13360;48.152;-1.788;2023-06-19T05:52:06;103992.22;;;18.42;100.00
25430;BME280;13360;48.152;-1.788;2023-06-19T05:54:31;104000.53;;;18.32;100.00
25430;BME280;13360;48.152;-1.788;2023-06-19T05:56:56;104019.03;;;18.33;100.00
25430;BME280;13360;48.152;-1.788;2023-06-19T05:59:21;104040.56;;;18.32;100.00
25430;BME280;13360;48.152;-1.788;2023-06-19T06:01:47;104062.75;;;18.39;100.00
25430;BME280;13360;48.152;-1.788;2023-06-19T06:04:12;104072.81;;;18.40;100.00
25430;BME280;13360;48.152;-1.788;2023-06-19T06:06:38;104078.97;;;18.42;100.00
25430;BME280;13360;48.152;-1.788;2023-06-19T06:09:03;104086.28;;;18.43;100.00
25430;BME280;13360;48.152;-1.788;2023-06-19T06:11:29;104087.38;;;18.42;100.00
25430;BME280;13360;48.152;-1.788;2023-06-19T06:13:54;104094.66;;;18.43;100.00
25430;BME280;13360;48.152;-1.788;2023-06-19T06:16:19;104103.63;;;18.45;100.00
25430;BME280;13360;48.152;-1.788;2023-06-19T06:18:45;104095.78;;;18.42;100.00
25430;BME280;13360;48.152;-1.788;2023-06-19T06:21:10;104103.91;;;18.43;100.00
25430;BME280;13360;48.152;-1.788;2023-06-19T06:23:37;104108.69;;;18.48;100.00
25430;BME280;13360;48.152;-1.788;2023-06-19T06:26:03;104105.63;;;18.49;100.00
25430;BME280;13360;48.152;-1.788;2023-06-19T06:28:28;104113.22;;;18.54;100.00
25430;BME280;13360;48.152;-1.788;2023-06-19T06:30:54;104119.13;;;18.57;100.00
25430;BME280;13360;48.152;-1.788;2023-06-19T06:33:19;104122.22;;;18.61;100.00
25430;BME280;13360;48.152;-1.788;2023-06-19T06:35:44;104109.91;;;18.62;100.00
25430;BME280;13360;48.152;-1.788;2023-06-19T06:38:10;104110.25;;;18.66;100.00
25430;BME280;13360;48.152;-1.788;2023-06-19T06:40:35;104112.78;;;18.67;100.00
25430;BME280;13360;48.152;-1.788;2023-06-19T06:43:00;104100.72;;;18.67;100.00
25430;BME280;13360;48.152;-1.788;2023-06-19T06:45:25;104103.81;;;18.70;100.00
25430;BME280;13360;48.152;-1.788;2023-06-19T06:47:50;104089.81;;;18.70;100.00
25430;BME280;13360;48.152;-1.788;2023-06-19T06:50:16;104092.91;;;18.69;100.00
25430;BME280;13360;48.152;-1.788;2023-06-19T06:52:41;104087.03;;;18.70;100.00
25430;BME280;13360;48.152;-1.788;2023-06-19T06:55:06;104083.94;;;18.72;100.00
25430;BME280;13360;48.152;-1.788;2023-06-19T06:57:31;104074.69;;;18.66;100.00
25430;BME280;13360;48.152;-1.788;2023-06-19T06:59:57;104073.84;;;18.66;100.00
25430;BME280;13360;48.152;-1.788;2023-06-19T07:02:22;104076.38;;;18.67;100.00
25430;BME280;13360;48.152;-1.788;2023-06-19T07:04:48;104077.84;;;18.75;100.00
25430;BME280;13360;48.152;-1.788;2023-06-19T07:07:13;104092.13;;;18.78;100.00
25430;BME280;13360;48.152;-1.788;2023-06-19T07:09:38;104084.03;;;18.82;100.00
25430;BME280;13360;48.152;-1.788;2023-06-19T07:12:03;104080.38;;;18.81;100.00
25430;BME280;13360;48.152;-1.788;2023-06-19T07:14:30;104078.41;;;18.82;100.00
25430;BME280;13360;48.152;-1.788;2023-06-19T07:16:55;104077.03;;;18.84;100.00
25430;BME280;13360;48.152;-1.788;2023-06-19T07:19:20;104071.44;;;18.89;100.00
25430;BME280;13360;48.152;-1.788;2023-06-19T07:21:45;104070.09;;;18.97;100.00
25430;BME280;13360;48.152;-1.788;2023-06-19T07:24:11;104072.34;;;19.00;100.00
25430;BME280;13360;48.152;-1.788;2023-06-19T07:26:36;104082.72;;;19.10;100.00
25430;BME280;13360;48.152;-1.788;2023-06-19T07:29:01;104077.47;;;19.29;100.00
25430;BME280;13360;48.152;-1.788;2023-06-19T07:31:27;104064.91;;;19.41;100.00
25430;BME280;13360;48.152;-1.788;2023-06-19T07:33:52;104038.00;;;19.45;100.00
25430;BME280;13360;48.152;-1.788;2023-06-19T07:36:17;104009.41;;;19.43;100.00
25430;BME280;13360;48.152;-1.788;2023-06-19T07:38:42;103974.34;;;19.41;100.00
25430;BME280;13360;48.152;-1.788;2023-06-19T07:41:08;103938.47;;;19.43;100.00
25430;BME280;13360;48.152;-1.788;2023-06-19T07:43:34;103903.16;;;19.37;100.00
25430;BME280;13360;48.152;-1.788;2023-06-19T07:46:00;103893.31;;;19.34;100.00
25430;BME280;13360;48.152;-1.788;2023-06-19T07:48:25;103882.97;;;19.35;100.00
25430;BME280;13360;48.152;-1.788;2023-06-19T07:50:50;103866.13;;;19.35;100.00
25430;BME280;13360;48.152;-1.788;2023-06-19T07:53:16;103864.75;;;19.42;100.00
25430;BME280;13360;48.152;-1.788;2023-06-19T07:55:41;103821.00;;;19.46;100.00
25430;BME280;13360;48.152;-1.788;2023-06-19T07:58:06;103800.25;;;19.53;100.00
25430;BME280;13360;48.152;-1.788;2023-06-19T08:00:32;103801.09;;;19.63;100.00
25430;BME280;13360;48.152;-1.788;2023-06-19T08:02:57;103772.19;;;19.68;100.00
25430;BME280;13360;48.152;-1.788;2023-06-19T08:05:22;103752.81;;;19.76;100.00
25430;BME280;13360;48.152;-1.788;2023-06-19T08:07:47;103752.47;;;19.88;100.00
25430;BME280;13360;48.152;-1.788;2023-06-19T08:10:13;103719.06;;;19.92;100.00
25430;BME280;13360;48.152;-1.788;2023-06-19T08:12:38;103722.38;;;20.04;100.00
25430;BME280;13360;48.152;-1.788;2023-06-19T08:15:03;103692.03;;;20.11;100.00
25430;BME280;13360;48.152;-1.788;2023-06-19T08:17:29;103681.00;;;20.25;100.00
25430;BME280;13360;48.152;-1.788;2023-06-19T08:19:54;103693.81;;;20.41;100.00
25430;BME280;13360;48.152;-1.788;2023-06-19T08:22:19;103677.97;;;20.55;100.00
25430;BME280;13360;48.152;-1.788;2023-06-19T08:24:45;103720.03;;;20.65;100.00
25430;BME280;13360;48.152;-1.788;2023-06-19T08:27:10;103682.41;;;20.61;100.00
25430;BME280;13360;48.152;-1.788;2023-06-19T08:29:35;103619.88;;;20.51;100.00
25430;BME280;13360;48.152;-1.788;2023-06-19T08:32:00;103596.59;;;20.50;100.00
25430;BME280;13360;48.152;-1.788;2023-06-19T08:34:27;103585.13;;;20.47;100.00
25430;BME280;13360;48.152;-1.788;2023-06-19T08:36:52;103563.81;;;20.40;100.00
25430;BME280;13360;48.152;-1.788;2023-06-19T08:39:17;103553.69;;;20.39;100.00
25430;BME280;13360;48.152;-1.788;2023-06-19T08:41:43;103543.91;;;20.42;100.00
25430;BME280;13360;48.152;-1.788;2023-06-19T08:44:08;103514.69;;;20.43;100.00
25430;BME280;13360;48.152;-1.788;2023-06-19T08:46:34;103445.06;;;20.40;100.00
25430;BME280;13360;48.152;-1.788;2023-06-19T08:49:02;103353.84;;;20.43;100.00
25430;BME280;13360;48.152;-1.788;2023-06-19T08:51:27;103282.63;;;20.33;100.00
25430;BME280;13360;48.152;-1.788;2023-06-19T08:53:54;103268.97;;;20.27;100.00
25430;BME280;13360;48.152;-1.788;2023-06-19T08:56:20;103258.88;;;20.26;100.00
25430;BME280;13360;48.152;-1.788;2023-06-19T08:58:45;103251.81;;;20.28;100.00
25430;BME280;13360;48.152;-1.788;2023-06-19T09:01:10;103264.41;;;20.31;100.00
25430;BME280;13360;48.152;-1.788;2023-06-19T09:03:36;103271.09;;;20.35;100.00
25430;BME280;13360;48.152;-1.788;2023-06-19T09:06:06;103253.72;;;20.33;100.00
25430;BME280;13360;48.152;-1.788;2023-06-19T09:08:32;103245.91;;;20.30;100.00
25430;BME280;13360;48.152;-1.788;2023-06-19T09:10:58;103217.31;;;20.28;100.00
25430;BME280;13360;48.152;-1.788;2023-06-19T09:13:23;103216.78;;;20.26;100.00
25430;BME280;13360;48.152;-1.788;2023-06-19T09:15:56;103249.09;;;20.23;100.00
25430;BME280;13360;48.152;-1.788;2023-06-19T09:18:22;103220.56;;;20.16;100.00
25430;BME280;13360;48.152;-1.788;2023-06-19T09:20:47;103194.78;;;20.14;100.00
25430;BME280;13360;48.152;-1.788;2023-06-19T09:23:13;103165.06;;;20.13;100.00
25430;BME280;13360;48.152;-1.788;2023-06-19T09:28:16;103177.41;;;20.31;100.00
25430;BME280;13360;48.152;-1.788;2023-06-19T09:30:50;103145.28;;;20.42;100.00
25430;BME280;13360;48.152;-1.788;2023-06-19T09:33:16;103136.69;;;20.52;100.00
25430;BME280;13360;48.152;-1.788;2023-06-19T09:35:41;103126.22;;;20.72;100.00
25430;BME280;13360;48.152;-1.788;2023-06-19T09:38:06;103130.56;;;21.10;100.00
25430;BME280;13360;48.152;-1.788;2023-06-19T09:40:32;103056.34;;;21.11;100.00
25430;BME280;13360;48.152;-1.788;2023-06-19T09:42:57;102993.50;;;21.07;100.00
25430;BME280;13360;48.152;-1.788;2023-06-19T09:45:23;102927.44;;;20.96;100.00
25430;BME280;13360;48.152;-1.788;2023-06-19T09:47:51;102908.84;;;20.86;100.00
25430;BME280;13360;48.152;-1.788;2023-06-19T09:50:17;102875.53;;;20.80;100.00
25430;BME280;13360;48.152;-1.788;2023-06-19T09:52:43;102846.75;;;20.74;100.00
25430;BME280;13360;48.152;-1.788;2023-06-19T09:55:09;102793.66;;;20.64;100.00
25430;BME280;13360;48.152;-1.788;2023-06-19T09:57:37;102806.03;;;20.63;100.00
25430;BME280;13360;48.152;-1.788;2023-06-19T10:00:04;102844.19;;;20.64;100.00
25430;BME280;13360;48.152;-1.788;2023-06-19T10:02:42;102821.72;;;20.64;100.00
25430;BME280;13360;48.152;-1.788;2023-06-19T10:05:08;102797.16;;;20.69;100.00
25430;BME280;13360;48.152;-1.788;2023-06-19T10:07:40;102873.06;;;20.78;100.00
25430;BME280;13360;48.152;-1.788;2023-06-19T10:10:07;102881.47;;;20.92;100.00
25430;BME280;13360;48.152;-1.788;2023-06-19T10:12:42;102835.06;;;21.30;100.00
25430;BME280;13360;48.152;-1.788;2023-06-19T10:17:38;102665.59;;;21.30;100.00
25430;BME280;13360;48.152;-1.788;2023-06-19T10:20:17;102577.81;;;21.42;100.00
25430;BME280;13360;48.152;-1.788;2023-06-19T10:22:50;102565.78;;;21.50;100.00
25430;BME280;13360;48.152;-1.788;2023-06-19T10:25:19;102540.81;;;21.57;100.00
25430;BME280;13360;48.152;-1.788;2023-06-19T10:27:45;102564.00;;;21.80;100.00
25430;BME280;13360;48.152;-1.788;2023-06-19T10:30:16;102536.53;;;22.03;100.00
25430;BME280;13360;48.152;-1.788;2023-06-19T10:32:42;102535.75;;;22.28;100.00
25430;BME280;13360;48.152;-1.788;2023-06-19T10:35:11;102442.97;;;22.49;100.00
25430;BME280;13360;48.152;-1.788;2023-06-19T10:37:36;102327.56;;;22.70;100.00
25430;BME280;13360;48.152;-1.788;2023-06-19T10:40:02;102262.38;;;23.01;100.00
25430;BME280;13360;48.152;-1.788;2023-06-19T10:42:27;102153.69;;;22.79;100.00
25430;BME280;13360;48.152;-1.788;2023-06-19T10:44:58;102097.25;;;23.45;100.00
25430;BME280;13360;48.152;-1.788;2023-06-19T10:47:24;101918.97;;;24.32;100.00
25430;BME280;13360;48.152;-1.788;2023-06-19T10:49:49;101739.66;;;23.91;100.00
25430;BME280;13360;48.152;-1.788;2023-06-19T10:52:14;101775.69;;;23.26;100.00
25430;BME280;13360;48.152;-1.788;2023-06-19T10:54:40;101795.53;;;22.77;100.00
25430;BME280;13360;48.152;-1.788;2023-06-19T10:57:06;101796.94;;;22.46;100.00
25430;BME280;13360;48.152;-1.788;2023-06-19T10:59:31;101884.91;;;22.31;100.00
25430;BME280;13360;48.152;-1.788;2023-06-19T11:01:58;101937.38;;;22.15;100.00
25430;BME280;13360;48.152;-1.788;2023-06-19T11:04:23;101975.00;;;22.10;100.00
25430;BME280;13360;48.152;-1.788;2023-06-19T11:06:50;102006.78;;;22.11;100.00
25430;BME280;13360;48.152;-1.788;2023-06-19T11:09:15;101892.59;;;22.10;100.00
25430;BME280;13360;48.152;-1.788;2023-06-19T11:11:41;101866.81;;;22.08;100.00
25430;BME280;13360;48.152;-1.788;2023-06-19T11:14:07;101857.13;;;21.97;100.00
25430;BME280;13360;48.152;-1.788;2023-06-19T11:16:33;101883.81;;;21.90;100.00
25430;BME280;13360;48.152;-1.788;2023-06-19T11:18:59;101939.84;;;21.96;100.00
25430;BME280;13360;48.152;-1.788;2023-06-19T11:21:34;101965.66;;;21.98;100.00
25430;BME280;13360;48.152;-1.788;2023-06-19T11:24:10;101970.81;;;21.96;100.00
25430;BME280;13360;48.152;-1.788;2023-06-19T11:26:40;101875.25;;;21.87;100.00
25430;BME280;13360;48.152;-1.788;2023-06-19T11:29:21;101843.50;;;21.86;100.00
25430;BME280;13360;48.152;-1.788;2023-06-19T11:31:47;101808.81;;;21.95;100.00
25430;BME280;13360;48.152;-1.788;2023-06-19T11:34:13;101849.91;;;22.08;100.00
25430;BME280;13360;48.152;-1.788;2023-06-19T11:36:42;101862.31;;;22.07;100.00
25430;BME280;13360;48.152;-1.788;2023-06-19T11:39:11;101759.25;;;21.90;100.00
25430;BME280;13360;48.152;-1.788;2023-06-19T11:41:37;101731.47;;;21.88;100.00
25430;BME280;13360;48.152;-1.788;2023-06-19T11:44:06;101702.53;;;21.88;100.00
25430;BME280;13360;48.152;-1.788;2023-06-19T11:46:32;101770.84;;;22.01;100.00
25430;BME280;13360;48.152;-1.788;2023-06-19T11:49:11;101811.88;;;22.02;100.00
25430;BME280;13360;48.152;-1.788;2023-06-19T11:51:37;101737.56;;;22.03;100.00
25430;BME280;13360;48.152;-1.788;2023-06-19T11:54:04;101709.44;;;22.03;100.00
25430;BME280;13360;48.152;-1.788;2023-06-19T11:56:30;101618.97;;;22.01;100.00
25430;BME280;13360;48.152;-1.788;2023-06-19T11:58:55;101610.78;;;21.96;100.00
25430;BME280;13360;48.152;-1.788;2023-06-19T12:01:21;101697.38;;;22.02;100.00
25430;BME280;13360;48.152;-1.788;2023-06-19T12:03:46;101590.63;;;22.06;100.00
25430;BME280;13360;48.152;-1.788;2023-06-19T12:06:11;101559.44;;;22.11;100.00
25430;BME280;13360;48.152;-1.788;2023-06-19T12:08:36;101550.19;;;22.10;100.00
25430;BME280;13360;48.152;-1.788;2023-06-19T12:11:02;101410.38;;;21.99;100.00
25430;BME280;13360;48.152;-1.788;2023-06-19T12:13:30;101392.47;;;21.91;100.00
25430;BME280;13360;48.152;-1.788;2023-06-19T12:15:55;101439.56;;;21.94;100.00
25430;BME280;13360;48.152;-1.788;2023-06-19T12:18:20;101390.22;;;21.97;100.00
25430;BME280;13360;48.152;-1.788;2023-06-19T12:20:45;101369.56;;;22.05;100.00
25430;BME280;13360;48.152;-1.788;2023-06-19T12:23:11;101331.13;;;22.09;100.00
25430;BME280;13360;48.152;-1.788;2023-06-19T12:25:36;101339.56;;;22.09;100.00
25430;BME280;13360;48.152;-1.788;2023-06-19T12:28:01;101364.63;;;22.02;100.00
25430;BME280;13360;48.152;-1.788;2023-06-19T12:30:33;101319.28;;;22.03;100.00
25430;BME280;13360;48.152;-1.788;2023-06-19T12:32:59;101334.84;;;22.13;100.00